sensor_id;sensor_type;location;lat;lon;timestamp;P1;durP1;ratioP1;P2;durP2;ratioP2
72388;SDS011;60566;48.062;9.930;2023-07-20T00:00:37;4.28;;;1.70;;
72388;SDS011;60566;48.062;9.930;2023-07-20T00:03:13;5.18;;;1.73;;
72388;SDS011;60566;48.062;9.930;2023-07-20T00:05:39;3.92;;;1.70;;
72388;SDS011;60566;48.062;9.930;2023-07-20T00:08:05;7.50;;;1.60;;
72388;SDS011;60566;48.062;9.930;2023-07-20T00:10:30;4.03;;;1.50;;
72388;SDS011;60566;48.062;9.930;2023-07-20T00:12:55;25.85;;;4.03;;
72388;SDS011;60566;48.062;9.930;2023-07-20T00:15:21;4.40;;;1.73;;
72388;SDS011;60566;48.062;9.930;2023-07-20T00:17:46;7.15;;;1.63;;
72388;SDS011;60566;48.062;9.930;2023-07-20T00:20:13;4.20;;;1.50;;
72388;SDS011;60566;48.062;9.930;2023-07-20T00:22:38;4.10;;;1.60;;
72388;SDS011;60566;48.062;9.930;2023-07-20T00:25:04;4.72;;;1.60;;
72388;SDS011;60566;48.062;9.930;2023-07-20T00:27:30;4.15;;;1.50;;
72388;SDS011;60566;48.062;9.930;2023-07-20T00:29:55;3.97;;;1.45;;
72388;SDS011;60566;48.062;9.930;2023-07-20T00:32:20;4.18;;;1.52;;
72388;SDS011;60566;48.062;9.930;2023-07-20T00:34:46;3.50;;;1.50;;
72388;SDS011;60566;48.062;9.930;2023-07-20T00:37:12;5.38;;;1.60;;
72388;SDS011;60566;48.062;9.930;2023-07-20T00:39:38;5.60;;;1.80;;
72388;SDS011;60566;48.062;9.930;2023-07-20T00:42:04;4.10;;;1.70;;
72388;SDS011;60566;48.062;9.930;2023-07-20T00:44:30;7.68;;;1.60;;
72388;SDS011;60566;48.062;9.930;2023-07-20T00:46:55;5.80;;;1.50;;
72388;SDS011;60566;48.062;9.930;2023-07-20T00:49:21;3.03;;;1.50;;
72388;SDS011;60566;48.062;9.930;2023-07-20T00:51:46;4.10;;;1.58;;
72388;SDS011;60566;48.062;9.930;2023-07-20T00:54:14;4.05;;;1.45;;
72388;SDS011;60566;48.062;9.930;2023-07-20T00:56:40;5.65;;;2.08;;
72388;SDS011;60566;48.062;9.930;2023-07-20T00:59:05;5.45;;;2.13;;
72388;SDS011;60566;48.062;9.930;2023-07-20T01:01:31;5.10;;;1.67;;
72388;SDS011;60566;48.062;9.930;2023-07-20T01:03:56;3.70;;;1.58;;
72388;SDS011;60566;48.062;9.930;2023-07-20T01:06:24;4.60;;;1.88;;
72388;SDS011;60566;48.062;9.930;2023-07-20T01:08:57;4.55;;;1.90;;
72388;SDS011;60566;48.062;9.930;2023-07-20T01:11:33;5.00;;;1.70;;
72388;SDS011;60566;48.062;9.930;2023-07-20T01:14:03;4.93;;;1.60;;
72388;SDS011;60566;48.062;9.930;2023-07-20T01:16:28;4.32;;;1.65;;
72388;SDS011;60566;48.062;9.930;2023-07-20T01:18:53;4.45;;;1.45;;
72388;SDS011;60566;48.062;9.930;2023-07-20T01:21:21;3.10;;;1.38;;
72388;SDS011;60566;48.062;9.930;2023-07-20T01:23:58;8.07;;;2.33;;
72388;SDS011;60566;48.062;9.930;2023-07-20T01:26:41;3.78;;;1.52;;
72388;SDS011;60566;48.062;9.930;2023-07-20T01:29:17;5.88;;;2.20;;
72388;SDS011;60566;48.062;9.930;2023-07-20T01:31:48;6.38;;;2.13;;
72388;SDS011;60566;48.062;9.930;2023-07-20T01:34:16;5.43;;;2.33;;
72388;SDS011;60566;48.062;9.930;2023-07-20T01:36:42;6.35;;;2.30;;
72388;SDS011;60566;48.062;9.930;2023-07-20T01:39:09;4.78;;;1.98;;
72388;SDS011;60566;48.062;9.930;2023-07-20T01:41:34;4.93;;;2.00;;
72388;SDS011;60566;48.062;9.930;2023-07-20T01:44:00;4.93;;;1.92;;
72388;SDS011;60566;48.062;9.930;2023-07-20T01:46:25;4.75;;;1.70;;
72388;SDS011;60566;48.062;9.930;2023-07-20T01:48:52;5.70;;;1.95;;
72388;SDS011;60566;48.062;9.930;2023-07-20T01:51:17;4.22;;;2.10;;
72388;SDS011;60566;48.062;9.930;2023-07-20T01:53:43;4.22;;;2.13;;
72388;SDS011;60566;48.062;9.930;2023-07-20T01:56:08;5.95;;;2.47;;
72388;SDS011;60566;48.062;9.930;2023-07-20T01:58:34;4.95;;;2.58;;
72388;SDS011;60566;48.062;9.930;2023-07-20T02:01:00;6.10;;;2.88;;
72388;SDS011;60566;48.062;9.930;2023-07-20T02:03:25;6.30;;;2.25;;
72388;SDS011;60566;48.062;9.930;2023-07-20T02:05:52;5.63;;;2.78;;
72388;SDS011;60566;48.062;9.930;2023-07-20T02:08:17;5.57;;;2.35;;
72388;SDS011;60566;48.062;9.930;2023-07-20T02:10:44;6.80;;;2.20;;
72388;SDS011;60566;48.062;9.930;2023-07-20T02:13:10;6.63;;;2.33;;
72388;SDS011;60566;48.062;9.930;2023-07-20T02:15:35;4.20;;;2.28;;
72388;SDS011;60566;48.062;9.930;2023-07-20T02:18:01;5.75;;;2.00;;
72388;SDS011;60566;48.062;9.930;2023-07-20T02:20:26;6.00;;;2.28;;
72388;SDS011;60566;48.062;9.930;2023-07-20T02:22:53;5.60;;;2.28;;
72388;SDS011;60566;48.062;9.930;2023-07-20T02:25:18;9.23;;;2.63;;
72388;SDS011;60566;48.062;9.930;2023-07-20T02:27:44;4.95;;;2.65;;
72388;SDS011;60566;48.062;9.930;2023-07-20T02:30:10;8.05;;;2.53;;
72388;SDS011;60566;48.062;9.930;2023-07-20T02:32:36;5.47;;;2.83;;
72388;SDS011;60566;48.062;9.930;2023-07-20T02:35:01;5.32;;;2.35;;
72388;SDS011;60566;48.062;9.930;2023-07-20T02:37:27;4.20;;;2.35;;
72388;SDS011;60566;48.062;9.930;2023-07-20T02:39:54;4.05;;;2.42;;
72388;SDS011;60566;48.062;9.930;2023-07-20T02:42:19;5.75;;;3.22;;
72388;SDS011;60566;48.062;9.930;2023-07-20T02:44:45;6.35;;;2.30;;
72388;SDS011;60566;48.062;9.930;2023-07-20T02:47:14;7.22;;;2.55;;
72388;SDS011;60566;48.062;9.930;2023-07-20T02:49:41;7.47;;;2.28;;
72388;SDS011;60566;48.062;9.930;2023-07-20T02:52:07;7.45;;;2.63;;
72388;SDS011;60566;48.062;9.930;2023-07-20T02:54:33;6.78;;;2.63;;
72388;SDS011;60566;48.062;9.930;2023-07-20T02:56:59;6.20;;;2.28;;
72388;SDS011;60566;48.062;9.930;2023-07-20T02:59:25;6.15;;;2.42;;
72388;SDS011;60566;48.062;9.930;2023-07-20T03:01:51;4.80;;;2.40;;
72388;SDS011;60566;48.062;9.930;2023-07-20T03:04:16;5.68;;;2.90;;
72388;SDS011;60566;48.062;9.930;2023-07-20T03:06:44;6.00;;;2.50;;
72388;SDS011;60566;48.062;9.930;2023-07-20T03:09:09;8.10;;;2.50;;
72388;SDS011;60566;48.062;9.930;2023-07-20T03:11:35;5.22;;;2.70;;
72388;SDS011;60566;48.062;9.930;2023-07-20T03:14:02;4.53;;;2.40;;
72388;SDS011;60566;48.062;9.930;2023-07-20T03:16:30;6.15;;;2.60;;
72388;SDS011;60566;48.062;9.930;2023-07-20T03:18:55;6.82;;;2.42;;
72388;SDS011;60566;48.062;9.930;2023-07-20T03:21:21;6.63;;;2.75;;
72388;SDS011;60566;48.062;9.930;2023-07-20T03:23:46;6.22;;;2.85;;
72388;SDS011;60566;48.062;9.930;2023-07-20T03:26:11;5.93;;;2.70;;
72388;SDS011;60566;48.062;9.930;2023-07-20T03:28:37;7.30;;;3.25;;
72388;SDS011;60566;48.062;9.930;2023-07-20T03:31:04;8.98;;;3.60;;
72388;SDS011;60566;48.062;9.930;2023-07-20T03:33:30;6.22;;;2.90;;
72388;SDS011;60566;48.062;9.930;2023-07-20T03:35:56;9.00;;;3.10;;
72388;SDS011;60566;48.062;9.930;2023-07-20T03:38:22;5.47;;;2.60;;
72388;SDS011;60566;48.062;9.930;2023-07-20T03:40:51;7.53;;;2.67;;
72388;SDS011;60566;48.062;9.930;2023-07-20T03:43:16;6.78;;;2.95;;
72388;SDS011;60566;48.062;9.930;2023-07-20T03:45:42;6.55;;;2.58;;
72388;SDS011;60566;48.062;9.930;2023-07-20T03:48:09;7.13;;;2.67;;
72388;SDS011;60566;48.062;9.930;2023-07-20T03:50:34;5.00;;;2.30;;
72388;SDS011;60566;48.062;9.930;2023-07-20T03:52:59;6.13;;;2.75;;
72388;SDS011;60566;48.062;9.930;2023-07-20T03:55:25;6.97;;;2.67;;
72388;SDS011;60566;48.062;9.930;2023-07-20T03:57:50;6.47;;;2.70;;
72388;SDS011;60566;48.062;9.930;2023-07-20T04:00:16;5.10;;;2.53;;
72388;SDS011;60566;48.062;9.930;2023-07-20T04:02:41;7.68;;;2.63;;
72388;SDS011;60566;48.062;9.930;2023-07-20T04:05:08;5.38;;;2.75;;
72388;SDS011;60566;48.062;9.930;2023-07-20T04:07:34;7.32;;;3.13;;
72388;SDS011;60566;48.062;9.930;2023-07-20T04:09:59;8.38;;;2.85;;
72388;SDS011;60566;48.062;9.930;2023-07-20T04:12:24;5.60;;;2.70;;
72388;SDS011;60566;48.062;9.930;2023-07-20T04:14:50;7.10;;;2.65;;
72388;SDS011;60566;48.062;9.930;2023-07-20T04:17:15;8.18;;;3.33;;
72388;SDS011;60566;48.062;9.930;2023-07-20T04:19:40;5.20;;;3.17;;
72388;SDS011;60566;48.062;9.930;2023-07-20T04:22:07;7.53;;;2.70;;
72388;SDS011;60566;48.062;9.930;2023-07-20T04:24:33;4.95;;;2.88;;
72388;SDS011;60566;48.062;9.930;2023-07-20T04:26:58;7.35;;;3.08;;
72388;SDS011;60566;48.062;9.930;2023-07-20T04:29:23;6.80;;;3.28;;
72388;SDS011;60566;48.062;9.930;2023-07-20T04:31:49;6.82;;;3.08;;
72388;SDS011;60566;48.062;9.930;2023-07-20T04:34:14;8.05;;;3.03;;
72388;SDS011;60566;48.062;9.930;2023-07-20T04:36:39;6.68;;;2.70;;
72388;SDS011;60566;48.062;9.930;2023-07-20T04:39:06;10.75;;;3.38;;
72388;SDS011;60566;48.062;9.930;2023-07-20T04:41:31;6.13;;;2.97;;
72388;SDS011;60566;48.062;9.930;2023-07-20T04:43:57;7.35;;;2.60;;
72388;SDS011;60566;48.062;9.930;2023-07-20T04:46:22;10.00;;;3.15;;
72388;SDS011;60566;48.062;9.930;2023-07-20T04:48:47;6.32;;;2.80;;
72388;SDS011;60566;48.062;9.930;2023-07-20T04:51:13;5.47;;;2.92;;
72388;SDS011;60566;48.062;9.930;2023-07-20T04:53:38;5.85;;;3.00;;
72388;SDS011;60566;48.062;9.930;2023-07-20T04:56:05;6.35;;;3.42;;
72388;SDS011;60566;48.062;9.930;2023-07-20T04:58:30;8.07;;;3.00;;
72388;SDS011;60566;48.062;9.930;2023-07-20T05:00:56;7.50;;;3.22;;
72388;SDS011;60566;48.062;9.930;2023-07-20T05:03:21;7.00;;;2.85;;
72388;SDS011;60566;48.062;9.930;2023-07-20T05:05:47;6.18;;;3.17;;
72388;SDS011;60566;48.062;9.930;2023-07-20T05:08:12;7.80;;;3.22;;
72388;SDS011;60566;48.062;9.930;2023-07-20T05:10:38;8.13;;;2.95;;
72388;SDS011;60566;48.062;9.930;2023-07-20T05:13:04;7.95;;;3.35;;
72388;SDS011;60566;48.062;9.930;2023-07-20T05:15:32;8.35;;;3.70;;
72388;SDS011;60566;48.062;9.930;2023-07-20T05:17:57;6.45;;;2.85;;
72388;SDS011;60566;48.062;9.930;2023-07-20T05:20:23;7.63;;;3.10;;
72388;SDS011;60566;48.062;9.930;2023-07-20T05:22:48;9.35;;;3.45;;
72388;SDS011;60566;48.062;9.930;2023-07-20T05:25:14;8.15;;;2.80;;
72388;SDS011;60566;48.062;9.930;2023-07-20T05:27:39;6.97;;;2.63;;
72388;SDS011;60566;48.062;9.930;2023-07-20T05:30:07;7.28;;;3.25;;
72388;SDS011;60566;48.062;9.930;2023-07-20T05:32:32;5.72;;;3.08;;
72388;SDS011;60566;48.062;9.930;2023-07-20T05:34:58;7.30;;;3.38;;
72388;SDS011;60566;48.062;9.930;2023-07-20T05:37:23;8.07;;;2.80;;
72388;SDS011;60566;48.062;9.930;2023-07-20T05:39:49;7.82;;;3.15;;
72388;SDS011;60566;48.062;9.930;2023-07-20T05:42:14;6.15;;;3.08;;
72388;SDS011;60566;48.062;9.930;2023-07-20T05:44:40;6.07;;;2.65;;
72388;SDS011;60566;48.062;9.930;2023-07-20T05:47:07;7.13;;;2.60;;
72388;SDS011;60566;48.062;9.930;2023-07-20T05:49:32;5.22;;;2.40;;
72388;SDS011;60566;48.062;9.930;2023-07-20T05:51:59;8.15;;;3.10;;
72388;SDS011;60566;48.062;9.930;2023-07-20T05:54:24;7.60;;;2.85;;
72388;SDS011;60566;48.062;9.930;2023-07-20T05:56:49;5.72;;;3.05;;
72388;SDS011;60566;48.062;9.930;2023-07-20T05:59:15;6.43;;;2.85;;
72388;SDS011;60566;48.062;9.930;2023-07-20T06:01:40;5.40;;;2.65;;
72388;SDS011;60566;48.062;9.930;2023-07-20T06:04:07;7.78;;;2.85;;
72388;SDS011;60566;48.062;9.930;2023-07-20T06:06:32;8.25;;;2.53;;
72388;SDS011;60566;48.062;9.930;2023-07-20T06:08:59;6.22;;;2.90;;
72388;SDS011;60566;48.062;9.930;2023-07-20T06:11:25;4.63;;;2.35;;
72388;SDS011;60566;48.062;9.930;2023-07-20T06:13:50;5.05;;;2.25;;
72388;SDS011;60566;48.062;9.930;2023-07-20T06:16:16;6.13;;;2.63;;
72388;SDS011;60566;48.062;9.930;2023-07-20T06:18:41;5.15;;;2.75;;
72388;SDS011;60566;48.062;9.930;2023-07-20T06:21:08;5.20;;;2.78;;
72388;SDS011;60566;48.062;9.930;2023-07-20T06:23:33;8.07;;;2.70;;
72388;SDS011;60566;48.062;9.930;2023-07-20T06:25:59;6.18;;;2.65;;
72388;SDS011;60566;48.062;9.930;2023-07-20T06:28:24;8.50;;;2.80;;
72388;SDS011;60566;48.062;9.930;2023-07-20T06:30:49;6.80;;;2.70;;
72388;SDS011;60566;48.062;9.930;2023-07-20T06:33:15;4.28;;;2.50;;
72388;SDS011;60566;48.062;9.930;2023-07-20T06:35:41;5.03;;;2.60;;
72388;SDS011;60566;48.062;9.930;2023-07-20T06:38:08;6.93;;;2.40;;
72388;SDS011;60566;48.062;9.930;2023-07-20T06:40:33;5.18;;;2.50;;
72388;SDS011;60566;48.062;9.930;2023-07-20T06:42:58;4.72;;;2.70;;
72388;SDS011;60566;48.062;9.930;2023-07-20T06:45:24;7.80;;;2.83;;
72388;SDS011;60566;48.062;9.930;2023-07-20T06:47:49;7.50;;;2.30;;
72388;SDS011;60566;48.062;9.930;2023-07-20T06:50:14;5.07;;;2.63;;
72388;SDS011;60566;48.062;9.930;2023-07-20T06:52:40;7.03;;;2.60;;
72388;SDS011;60566;48.062;9.930;2023-07-20T06:55:08;7.38;;;2.75;;
72388;SDS011;60566;48.062;9.930;2023-07-20T06:57:33;5.72;;;2.90;;
72388;SDS011;60566;48.062;9.930;2023-07-20T06:59:59;6.63;;;2.90;;
72388;SDS011;60566;48.062;9.930;2023-07-20T07:02:24;7.20;;;2.78;;
72388;SDS011;60566;48.062;9.930;2023-07-20T07:04:49;5.68;;;2.08;;
72388;SDS011;60566;48.062;9.930;2023-07-20T07:07:15;7.85;;;3.10;;
72388;SDS011;60566;48.062;9.930;2023-07-20T07:09:40;6.35;;;2.65;;
72388;SDS011;60566;48.062;9.930;2023-07-20T07:12:08;6.22;;;2.95;;
72388;SDS011;60566;48.062;9.930;2023-07-20T07:14:33;7.53;;;2.67;;
72388;SDS011;60566;48.062;9.930;2023-07-20T07:16:59;5.30;;;2.70;;
72388;SDS011;60566;48.062;9.930;2023-07-20T07:19:24;5.28;;;3.13;;
72388;SDS011;60566;48.062;9.930;2023-07-20T07:21:49;5.95;;;2.90;;
72388;SDS011;60566;48.062;9.930;2023-07-20T07:24:15;7.32;;;3.17;;
72388;SDS011;60566;48.062;9.930;2023-07-20T07:26:40;6.63;;;2.63;;
72388;SDS011;60566;48.062;9.930;2023-07-20T07:29:07;6.10;;;2.83;;
72388;SDS011;60566;48.062;9.930;2023-07-20T07:31:33;6.13;;;3.00;;
72388;SDS011;60566;48.062;9.930;2023-07-20T07:33:59;6.88;;;2.78;;
72388;SDS011;60566;48.062;9.930;2023-07-20T07:36:24;6.40;;;2.85;;
72388;SDS011;60566;48.062;9.930;2023-07-20T07:38:50;5.75;;;2.70;;
72388;SDS011;60566;48.062;9.930;2023-07-20T07:41:15;7.85;;;2.90;;
72388;SDS011;60566;48.062;9.930;2023-07-20T07:43:40;5.63;;;2.58;;
72388;SDS011;60566;48.062;9.930;2023-07-20T07:46:07;6.30;;;2.80;;
72388;SDS011;60566;48.062;9.930;2023-07-20T07:48:33;5.63;;;2.80;;
72388;SDS011;60566;48.062;9.930;2023-07-20T07:50:58;6.32;;;2.50;;
72388;SDS011;60566;48.062;9.930;2023-07-20T07:53:23;8.68;;;2.80;;
72388;SDS011;60566;48.062;9.930;2023-07-20T07:55:49;6.38;;;2.80;;
72388;SDS011;60566;48.062;9.930;2023-07-20T07:58:14;4.45;;;2.58;;
72388;SDS011;60566;48.062;9.930;2023-07-20T08:00:40;4.97;;;2.50;;
72388;SDS011;60566;48.062;9.930;2023-07-20T08:03:07;5.22;;;2.30;;
72388;SDS011;60566;48.062;9.930;2023-07-20T08:05:32;5.18;;;2.38;;
72388;SDS011;60566;48.062;9.930;2023-07-20T08:07:58;4.47;;;2.35;;
72388;SDS011;60566;48.062;9.930;2023-07-20T08:10:23;5.97;;;2.50;;
72388;SDS011;60566;48.062;9.930;2023-07-20T08:12:49;4.22;;;2.67;;
72388;SDS011;60566;48.062;9.930;2023-07-20T08:15:14;4.43;;;2.00;;
72388;SDS011;60566;48.062;9.930;2023-07-20T08:17:40;4.28;;;2.13;;
72388;SDS011;60566;48.062;9.930;2023-07-20T08:20:08;4.70;;;2.47;;
72388;SDS011;60566;48.062;9.930;2023-07-20T08:24:59;6.83;;;2.90;;
72388;SDS011;60566;48.062;9.930;2023-07-20T08:27:24;4.88;;;1.98;;
72388;SDS011;60566;48.062;9.930;2023-07-20T08:29:50;6.78;;;2.17;;
72388;SDS011;60566;48.062;9.930;2023-07-20T08:32:15;4.68;;;2.15;;
72388;SDS011;60566;48.062;9.930;2023-07-20T08:34:41;5.25;;;2.17;;
72388;SDS011;60566;48.062;9.930;2023-07-20T08:37:08;5.90;;;2.20;;
72388;SDS011;60566;48.062;9.930;2023-07-20T08:39:33;6.32;;;2.17;;
72388;SDS011;60566;48.062;9.930;2023-07-20T08:41:59;4.80;;;2.05;;
72388;SDS011;60566;48.062;9.930;2023-07-20T08:44:24;5.75;;;2.35;;
72388;SDS011;60566;48.062;9.930;2023-07-20T08:46:50;6.53;;;2.30;;
72388;SDS011;60566;48.062;9.930;2023-07-20T08:51:42;5.57;;;2.40;;
72388;SDS011;60566;48.062;9.930;2023-07-20T08:54:09;5.78;;;2.35;;
72388;SDS011;60566;48.062;9.930;2023-07-20T08:56:37;4.90;;;2.20;;
72388;SDS011;60566;48.062;9.930;2023-07-20T08:59:03;4.70;;;2.10;;
72388;SDS011;60566;48.062;9.930;2023-07-20T09:01:29;7.68;;;2.13;;
72388;SDS011;60566;48.062;9.930;2023-07-20T09:03:55;4.82;;;1.90;;
72388;SDS011;60566;48.062;9.930;2023-07-20T09:06:20;5.18;;;1.98;;
72388;SDS011;60566;48.062;9.930;2023-07-20T09:08:46;6.57;;;2.10;;
72388;SDS011;60566;48.062;9.930;2023-07-20T09:11:13;5.65;;;2.30;;
72388;SDS011;60566;48.062;9.930;2023-07-20T09:13:38;4.88;;;2.22;;
72388;SDS011;60566;48.062;9.930;2023-07-20T09:16:03;6.78;;;2.15;;
72388;SDS011;60566;48.062;9.930;2023-07-20T09:18:29;8.57;;;2.85;;
72388;SDS011;60566;48.062;9.930;2023-07-20T09:20:57;5.28;;;2.20;;
72388;SDS011;60566;48.062;9.930;2023-07-20T09:25:54;4.47;;;2.05;;
72388;SDS011;60566;48.062;9.930;2023-07-20T09:28:20;5.00;;;2.50;;
72388;SDS011;60566;48.062;9.930;2023-07-20T09:30:46;4.22;;;2.03;;
72388;SDS011;60566;48.062;9.930;2023-07-20T09:33:18;6.35;;;1.85;;
72388;SDS011;60566;48.062;9.930;2023-07-20T09:35:43;4.45;;;2.17;;
72388;SDS011;60566;48.062;9.930;2023-07-20T09:38:09;6.13;;;2.38;;
72388;SDS011;60566;48.062;9.930;2023-07-20T09:40:37;6.40;;;2.35;;
72388;SDS011;60566;48.062;9.930;2023-07-20T09:43:03;5.07;;;2.28;;
72388;SDS011;60566;48.062;9.930;2023-07-20T09:45:34;10.82;;;2.22;;
72388;SDS011;60566;48.062;9.930;2023-07-20T09:48:03;5.68;;;2.15;;
72388;SDS011;60566;48.062;9.930;2023-07-20T09:50:28;5.78;;;2.25;;
72388;SDS011;60566;48.062;9.930;2023-07-20T09:52:54;4.75;;;2.40;;
72388;SDS011;60566;48.062;9.930;2023-07-20T09:55:19;5.82;;;2.30;;
72388;SDS011;60566;48.062;9.930;2023-07-20T09:57:45;4.60;;;1.80;;
72388;SDS011;60566;48.062;9.930;2023-07-20T10:00:11;4.68;;;2.10;;
72388;SDS011;60566;48.062;9.930;2023-07-20T10:02:40;3.92;;;2.00;;
72388;SDS011;60566;48.062;9.930;2023-07-20T10:05:07;4.47;;;2.25;;
72388;SDS011;60566;48.062;9.930;2023-07-20T10:07:33;4.28;;;2.10;;
72388;SDS011;60566;48.062;9.930;2023-07-20T10:10:00;5.03;;;2.20;;
72388;SDS011;60566;48.062;9.930;2023-07-20T10:12:26;4.43;;;1.92;;
72388;SDS011;60566;48.062;9.930;2023-07-20T10:14:54;3.75;;;2.10;;
72388;SDS011;60566;48.062;9.930;2023-07-20T10:17:23;4.47;;;2.35;;
72388;SDS011;60566;48.062;9.930;2023-07-20T10:19:51;4.28;;;1.80;;
72388;SDS011;60566;48.062;9.930;2023-07-20T10:22:25;6.35;;;2.45;;
72388;SDS011;60566;48.062;9.930;2023-07-20T10:24:51;5.22;;;2.40;;
72388;SDS011;60566;48.062;9.930;2023-07-20T10:27:18;5.15;;;1.88;;
72388;SDS011;60566;48.062;9.930;2023-07-20T10:29:43;5.53;;;2.25;;
72388;SDS011;60566;48.062;9.930;2023-07-20T10:32:09;4.50;;;2.33;;
72388;SDS011;60566;48.062;9.930;2023-07-20T10:34:34;7.75;;;2.30;;
72388;SDS011;60566;48.062;9.930;2023-07-20T10:37:01;6.63;;;1.95;;
72388;SDS011;60566;48.062;9.930;2023-07-20T10:39:27;6.72;;;2.80;;
72388;SDS011;60566;48.062;9.930;2023-07-20T10:41:59;4.45;;;2.10;;
72388;SDS011;60566;48.062;9.930;2023-07-20T10:44:26;5.25;;;2.90;;
72388;SDS011;60566;48.062;9.930;2023-07-20T10:46:51;7.20;;;3.03;;
72388;SDS011;60566;48.062;9.930;2023-07-20T10:49:24;5.22;;;2.40;;
72388;SDS011;60566;48.062;9.930;2023-07-20T10:51:49;7.88;;;2.30;;
72388;SDS011;60566;48.062;9.930;2023-07-20T10:54:35;4.70;;;2.28;;
72388;SDS011;60566;48.062;9.930;2023-07-20T10:57:21;5.25;;;2.17;;
72388;SDS011;60566;48.062;9.930;2023-07-20T10:59:48;5.40;;;2.35;;
72388;SDS011;60566;48.062;9.930;2023-07-20T11:02:17;6.43;;;2.40;;
72388;SDS011;60566;48.062;9.930;2023-07-20T11:04:43;4.75;;;2.20;;
72388;SDS011;60566;48.062;9.930;2023-07-20T11:07:09;6.07;;;2.67;;
72388;SDS011;60566;48.062;9.930;2023-07-20T11:09:36;4.28;;;2.33;;
72388;SDS011;60566;48.062;9.930;2023-07-20T11:12:09;5.93;;;2.28;;
72388;SDS011;60566;48.062;9.930;2023-07-20T11:14:34;6.55;;;2.58;;
72388;SDS011;60566;48.062;9.930;2023-07-20T11:17:10;5.43;;;2.45;;
72388;SDS011;60566;48.062;9.930;2023-07-20T11:19:36;5.80;;;2.83;;
72388;SDS011;60566;48.062;9.930;2023-07-20T11:22:02;6.13;;;2.75;;
72388;SDS011;60566;48.062;9.930;2023-07-20T11:26:56;4.85;;;2.60;;
72388;SDS011;60566;48.062;9.930;2023-07-20T11:29:22;5.20;;;2.60;;
72388;SDS011;60566;48.062;9.930;2023-07-20T11:31:48;5.13;;;2.63;;
72388;SDS011;60566;48.062;9.930;2023-07-20T11:34:14;7.20;;;2.58;;
72388;SDS011;60566;48.062;9.930;2023-07-20T11:36:41;7.78;;;2.25;;
72388;SDS011;60566;48.062;9.930;2023-07-20T11:39:07;5.43;;;2.30;;
72388;SDS011;60566;48.062;9.930;2023-07-20T11:41:34;4.60;;;2.40;;
72388;SDS011;60566;48.062;9.930;2023-07-20T11:44:00;6.05;;;2.42;;
72388;SDS011;60566;48.062;9.930;2023-07-20T11:46:27;5.15;;;2.60;;
72388;SDS011;60566;48.062;9.930;2023-07-20T11:48:55;4.53;;;2.10;;
72388;SDS011;60566;48.062;9.930;2023-07-20T11:51:22;7.18;;;2.88;;
72388;SDS011;60566;48.062;9.930;2023-07-20T11:53:48;8.65;;;3.03;;
72388;SDS011;60566;48.062;9.930;2023-07-20T11:56:13;5.90;;;2.90;;
72388;SDS011;60566;48.062;9.930;2023-07-20T11:58:41;5.28;;;2.55;;
72388;SDS011;60566;48.062;9.930;2023-07-20T12:01:08;11.48;;;2.72;;
72388;SDS011;60566;48.062;9.930;2023-07-20T12:03:34;7.90;;;2.50;;
72388;SDS011;60566;48.062;9.930;2023-07-20T12:06:05;7.97;;;2.40;;
72388;SDS011;60566;48.062;9.930;2023-07-20T12:08:31;5.53;;;2.90;;
72388;SDS011;60566;48.062;9.930;2023-07-20T12:10:57;4.55;;;2.22;;
72388;SDS011;60566;48.062;9.930;2023-07-20T12:13:22;4.32;;;2.33;;
72388;SDS011;60566;48.062;9.930;2023-07-20T12:15:48;6.75;;;2.47;;
72388;SDS011;60566;48.062;9.930;2023-07-20T12:18:15;7.07;;;2.80;;
72388;SDS011;60566;48.062;9.930;2023-07-20T12:20:40;9.85;;;2.58;;
72388;SDS011;60566;48.062;9.930;2023-07-20T12:23:08;7.80;;;2.90;;
72388;SDS011;60566;48.062;9.930;2023-07-20T12:25:38;4.55;;;2.20;;
72388;SDS011;60566;48.062;9.930;2023-07-20T12:28:04;5.47;;;2.70;;
72388;SDS011;60566;48.062;9.930;2023-07-20T12:30:32;6.82;;;2.65;;
72388;SDS011;60566;48.062;9.930;2023-07-20T12:32:58;4.45;;;2.20;;
72388;SDS011;60566;48.062;9.930;2023-07-20T12:35:24;10.90;;;2.28;;
72388;SDS011;60566;48.062;9.930;2023-07-20T12:37:50;5.60;;;2.22;;
72388;SDS011;60566;48.062;9.930;2023-07-20T12:40:15;5.38;;;2.25;;
72388;SDS011;60566;48.062;9.930;2023-07-20T12:42:41;5.88;;;2.33;;
72388;SDS011;60566;48.062;9.930;2023-07-20T12:45:06;8.25;;;2.40;;
72388;SDS011;60566;48.062;9.930;2023-07-20T12:47:32;4.30;;;2.28;;
72388;SDS011;60566;48.062;9.930;2023-07-20T12:49:58;6.55;;;2.63;;
72388;SDS011;60566;48.062;9.930;2023-07-20T12:52:25;8.05;;;3.10;;
72388;SDS011;60566;48.062;9.930;2023-07-20T12:54:51;4.00;;;2.00;;
72388;SDS011;60566;48.062;9.930;2023-07-20T12:57:16;6.20;;;2.20;;
72388;SDS011;60566;48.062;9.930;2023-07-20T12:59:41;3.67;;;2.13;;
72388;SDS011;60566;48.062;9.930;2023-07-20T13:02:07;7.00;;;2.75;;
72388;SDS011;60566;48.062;9.930;2023-07-20T13:04:32;9.10;;;2.08;;
72388;SDS011;60566;48.062;9.930;2023-07-20T13:06:58;6.53;;;2.40;;
72388;SDS011;60566;48.062;9.930;2023-07-20T13:09:25;5.75;;;2.20;;
72388;SDS011;60566;48.062;9.930;2023-07-20T13:11:50;6.28;;;2.45;;
72388;SDS011;60566;48.062;9.930;2023-07-20T13:14:16;7.75;;;2.40;;
72388;SDS011;60566;48.062;9.930;2023-07-20T13:16:41;5.30;;;2.70;;
72388;SDS011;60566;48.062;9.930;2023-07-20T13:19:06;7.10;;;2.40;;
72388;SDS011;60566;48.062;9.930;2023-07-20T13:21:32;5.68;;;2.35;;
72388;SDS011;60566;48.062;9.930;2023-07-20T13:23:57;6.53;;;2.30;;
72388;SDS011;60566;48.062;9.930;2023-07-20T13:26:24;5.28;;;2.53;;
72388;SDS011;60566;48.062;9.930;2023-07-20T13:28:49;4.30;;;2.67;;
72388;SDS011;60566;48.062;9.930;2023-07-20T13:31:15;4.18;;;1.95;;
72388;SDS011;60566;48.062;9.930;2023-07-20T13:33:42;5.72;;;2.03;;
72388;SDS011;60566;48.062;9.930;2023-07-20T13:38:33;5.40;;;2.10;;
72388;SDS011;60566;48.062;9.930;2023-07-20T13:40:58;4.55;;;2.38;;
72388;SDS011;60566;48.062;9.930;2023-07-20T13:43:26;7.65;;;2.42;;
72388;SDS011;60566;48.062;9.930;2023-07-20T13:45:51;4.30;;;2.00;;
72388;SDS011;60566;48.062;9.930;2023-07-20T13:48:17;7.05;;;2.40;;
72388;SDS011;60566;48.062;9.930;2023-07-20T13:50:42;3.83;;;2.15;;
72388;SDS011;60566;48.062;9.930;2023-07-20T13:53:07;4.80;;;2.40;;
72388;SDS011;60566;48.062;9.930;2023-07-20T13:55:33;9.40;;;2.67;;
72388;SDS011;60566;48.062;9.930;2023-07-20T13:57:58;4.53;;;2.25;;
72388;SDS011;60566;48.062;9.930;2023-07-20T14:00:25;5.32;;;2.72;;
72388;SDS011;60566;48.062;9.930;2023-07-20T14:02:50;4.63;;;2.50;;
72388;SDS011;60566;48.062;9.930;2023-07-20T14:05:15;4.85;;;2.50;;
72388;SDS011;60566;48.062;9.930;2023-07-20T14:07:41;7.00;;;2.60;;
72388;SDS011;60566;48.062;9.930;2023-07-20T14:10:06;7.60;;;2.42;;
72388;SDS011;60566;48.062;9.930;2023-07-20T14:12:32;3.80;;;2.30;;
72388;SDS011;60566;48.062;9.930;2023-07-20T14:14:57;5.00;;;2.47;;
72388;SDS011;60566;48.062;9.930;2023-07-20T14:17:24;5.28;;;2.20;;
72388;SDS011;60566;48.062;9.930;2023-07-20T14:19:50;4.80;;;2.17;;
72388;SDS011;60566;48.062;9.930;2023-07-20T14:22:16;6.43;;;2.30;;
72388;SDS011;60566;48.062;9.930;2023-07-20T14:24:41;14.18;;;3.55;;
72388;SDS011;60566;48.062;9.930;2023-07-20T14:27:06;6.75;;;2.30;;
72388;SDS011;60566;48.062;9.930;2023-07-20T14:29:32;4.75;;;2.15;;
72388;SDS011;60566;48.062;9.930;2023-07-20T14:31:58;5.38;;;2.17;;
72388;SDS011;60566;48.062;9.930;2023-07-20T14:34:24;6.57;;;2.10;;
72388;SDS011;60566;48.062;9.930;2023-07-20T14:36:50;4.18;;;2.40;;
72388;SDS011;60566;48.062;9.930;2023-07-20T14:39:15;5.85;;;2.30;;
72388;SDS011;60566;48.062;9.930;2023-07-20T14:41:40;5.45;;;2.35;;
72388;SDS011;60566;48.062;9.930;2023-07-20T14:44:06;4.80;;;2.60;;
72388;SDS011;60566;48.062;9.930;2023-07-20T14:46:31;5.65;;;2.30;;
72388;SDS011;60566;48.062;9.930;2023-07-20T14:48:57;7.55;;;2.28;;
72388;SDS011;60566;48.062;9.930;2023-07-20T14:51:23;5.40;;;2.42;;
72388;SDS011;60566;48.062;9.930;2023-07-20T14:53:49;4.20;;;1.92;;